createdAt,value
2022-11-06T00:14:35.271Z,30.48
2022-11-06T00:29:37.105Z,25.70
2022-11-06T00:44:38.974Z,23.30
2022-11-06T00:59:40.825Z,23.52
2022-11-06T01:14:43.232Z,23.95
2022-11-06T01:29:45.289Z,24.52
2022-11-06T01:45:05.635Z,24.55
2022-11-06T02:00:08.830Z,27.30
2022-11-06T02:15:27.758Z,20.10
2022-11-06T02:30:33.936Z,19.75
2022-11-06T02:45:50.891Z,16.77
2022-11-06T03:01:02.877Z,19.85
2022-11-06T03:16:12.766Z,19.10
2022-11-06T03:31:19.405Z,20.02
2022-11-06T03:46:25.247Z,20.88
2022-11-06T04:01:32.429Z,20.92
2022-11-06T04:16:45.614Z,19.80
2022-11-06T04:32:22.934Z,24.40
2022-11-06T04:47:25.453Z,32.87
2022-11-06T05:02:27.433Z,38.35
2022-11-06T05:17:32.701Z,28.27
2022-11-06T05:32:38.217Z,23.10
2022-11-06T05:47:41.774Z,26.70
2022-11-06T06:02:44.132Z,33.42
2022-11-06T06:17:46.673Z,22.08
2022-11-06T06:32:49.013Z,23.58
2022-11-06T06:47:50.908Z,21.27
2022-11-06T07:02:53.228Z,18.70
2022-11-06T07:17:55.231Z,24.65
2022-11-06T07:32:57.149Z,20.65
2022-11-06T07:47:59.427Z,20.60
2022-11-06T08:03:01.349Z,22.77
2022-11-06T08:18:04.044Z,17.08
2022-11-06T08:33:07.875Z,23.13
2022-11-06T08:48:10.496Z,19.83
2022-11-06T09:03:15.707Z,16.65
2022-11-06T09:18:18.063Z,19.67
2022-11-06T09:33:21.719Z,14.25
2022-11-06T09:48:31.394Z,15.27
2022-11-06T10:04:00.941Z,14.35
2022-11-06T10:19:11.394Z,9.13
2022-11-06T10:34:36.516Z,10.57
2022-11-06T10:50:00.776Z,12.88
2022-11-06T11:05:02.824Z,8.95
2022-11-06T11:20:34.360Z,7.68
2022-11-06T11:35:38.529Z,8.73
2022-11-06T11:50:40.547Z,7.55
2022-11-06T12:05:42.449Z,8.23
2022-11-06T12:21:05.647Z,8.13
2022-11-06T12:36:11.175Z,7.00
2022-11-06T12:51:35.370Z,7.50
2022-11-06T13:06:58.257Z,9.65
2022-11-06T13:22:35.190Z,8.52
2022-11-06T13:37:43.980Z,8.15
2022-11-06T13:52:54.018Z,12.03
2022-11-06T14:07:57.919Z,9.05
2022-11-06T14:23:38.964Z,7.20
2022-11-06T14:38:42.711Z,7.45
2022-11-06T14:53:51.738Z,8.25
2022-11-06T15:08:57.098Z,7.57
2022-11-06T15:24:09.157Z,11.77
2022-11-06T15:39:29.557Z,24.20
2022-11-06T15:54:38.868Z,26.25
2022-11-06T16:09:42.637Z,36.75
2022-11-06T16:24:50.439Z,39.50
2022-11-06T16:39:53.991Z,32.83
2022-11-06T16:55:16.391Z,37.65
2022-11-06T17:10:26.407Z,41.38
2022-11-06T17:25:29.119Z,36.90
2022-11-06T17:40:31.051Z,32.47
2022-11-06T17:55:33.559Z,34.55
2022-11-06T18:10:35.439Z,33.58
2022-11-06T18:25:37.279Z,37.38
2022-11-06T18:40:40.075Z,38.58
2022-11-06T18:55:46.056Z,40.28
2022-11-06T19:10:48.007Z,37.28
2022-11-06T19:25:54.535Z,34.10
2022-11-06T19:41:06.406Z,43.97
2022-11-06T19:56:10.240Z,44.00
2022-11-06T20:11:14.015Z,53.70
2022-11-06T20:26:16.186Z,54.38
2022-11-06T20:41:18.198Z,62.05
2022-11-06T20:56:22.818Z,59.63
2022-11-06T21:11:28.245Z,61.60
2022-11-06T21:26:33.237Z,56.65
2022-11-06T21:41:35.529Z,54.25
2022-11-06T21:56:38.997Z,57.60
2022-11-06T22:11:43.482Z,62.83
2022-11-06T22:26:45.383Z,60.40
2022-11-06T22:41:47.201Z,69.68
2022-11-06T22:56:49.127Z,60.10
2022-11-06T23:11:51.036Z,66.68
2022-11-06T23:26:52.869Z,60.72
2022-11-06T23:41:54.720Z,61.67
2022-11-06T23:56:56.527Z,63.50
